Time;durP1;ratioP1;P1;durP2;ratioP2;P2;SDS_P1;SDS_P2;PMS_P1;PMS_P2;Temp;Humidity;BMP_temperature;BMP_pressure;BME280_temperature;BME280_humidity;BME280_pressure;Samples;Min_cycle;Max_cycle;Signal;HPM_P1;HPM_P2
2023/02/16 00:00:30;;;;;;;23.70;15.10;;;;;;;3.49;81.34;101659.36;107215;1256;74743;-78
2023/02/16 00:02:58;;;;;;;22.50;14.40;;;;;;;3.46;81.42;101664.94;107286;1256;70128;-77
2023/02/16 00:05:33;;;;;;;24.90;15.30;;;;;;;3.43;81.66;101666.39;107310;1254;70280;-81
2023/02/16 00:08:00;;;;;;;25.00;15.90;;;;;;;3.40;81.41;101667.80;107098;1256;59647;-78
2023/02/16 00:10:33;;;;;;;24.20;15.70;;;;;;;3.38;81.33;101668.77;107187;1254;61294;-78
2023/02/16 00:15:46;;;;;;;24.10;16.10;;;;;;;3.35;81.34;101673.06;107562;1255;71016;-79
2023/02/16 00:18:16;;;;;;;23.90;15.40;;;;;;;3.32;81.42;101671.33;107323;1254;72541;-77
2023/02/16 00:20:48;;;;;;;25.00;15.90;;;;;;;3.28;81.47;101666.90;107496;1254;60013;-77
2023/02/16 00:23:15;;;;;;;25.40;16.30;;;;;;;3.21;81.96;101665.72;107370;1254;60360;-77
2023/02/16 00:25:42;;;;;;;27.00;16.60;;;;;;;3.16;82.13;101659.80;107482;1254;73144;-77
2023/02/16 00:28:15;;;;;;;23.90;15.50;;;;;;;3.10;82.27;101657.41;107124;1254;70217;-77
2023/02/16 00:30:42;;;;;;;25.40;16.60;;;;;;;3.06;82.48;101650.34;107390;1255;71540;-77
2023/02/16 00:33:17;;;;;;;25.30;15.90;;;;;;;3.01;82.97;101648.55;107069;1255;61347;-78
2023/02/16 00:35:44;;;;;;;26.30;16.90;;;;;;;2.96;83.09;101648.56;107504;1254;59437;-77
2023/02/16 00:38:12;;;;;;;28.10;16.90;;;;;;;2.91;83.31;101645.75;107537;1256;73743;-79
2023/02/16 00:40:40;;;;;;;28.10;17.00;;;;;;;2.85;83.73;101644.52;107524;1254;71547;-77
2023/02/16 00:43:10;;;;;;;27.70;16.40;;;;;;;2.82;83.81;101644.02;107381;1254;72146;-77
2023/02/16 00:45:37;;;;;;;25.60;16.40;;;;;;;2.79;84.12;101636.92;107745;1256;59666;-78
2023/02/16 00:48:04;;;;;;;26.70;16.90;;;;;;;2.76;84.26;101636.94;107290;1254;61238;-78
2023/02/16 00:50:33;;;;;;;25.30;16.30;;;;;;;2.72;84.73;101637.40;107327;1256;74657;-76
2023/02/16 00:53:01;;;;;;;26.80;16.90;;;;;;;2.69;84.72;101638.27;107368;1254;71349;-78
2023/02/16 00:55:32;;;;;;;27.20;17.00;;;;;;;2.67;85.16;101642.98;107593;1255;71617;-78
2023/02/16 00:58:05;;;;;;;26.50;16.50;;;;;;;2.66;85.18;101644.59;107454;1254;62007;-78
2023/02/16 01:00:36;;;;;;;26.20;17.00;;;;;;;2.66;85.28;101648.59;107458;1255;59264;-78
2023/02/16 01:03:21;;;;;;;28.30;17.90;;;;;;;2.66;85.33;101645.96;108306;1255;75896;-76
2023/02/16 01:05:48;;;;;;;27.10;16.40;;;;;;;2.66;85.38;101647.39;107818;1256;69716;-77
2023/02/16 01:11:06;;;;;;;28.70;17.90;;;;;;;2.69;85.70;101647.20;107601;1255;62246;-78
2023/02/16 01:13:47;;;;;;;27.90;17.40;;;;;;;2.68;85.65;101639.06;107786;1255;60627;-77
2023/02/16 01:16:20;;;;;;;28.10;17.10;;;;;;;2.68;85.95;101640.77;107443;1256;73163;-77
2023/02/16 01:18:48;;;;;;;28.70;18.00;;;;;;;2.70;85.98;101637.21;107539;1256;71169;-77
2023/02/16 01:21:15;;;;;;;28.70;17.90;;;;;;;2.71;85.95;101630.14;107179;1254;71532;-78
2023/02/16 01:23:42;;;;;;;29.10;16.70;;;;;;;2.70;86.09;101627.36;107641;1256;62651;-78
2023/02/16 01:26:18;;;;;;;28.30;17.60;;;;;;;2.70;86.09;101622.64;107039;1256;61116;-79
2023/02/16 01:28:45;;;;;;;30.40;18.80;;;;;;;2.69;86.05;101615.55;107405;1256;72890;-78
2023/02/16 01:31:13;;;;;;;27.10;17.60;;;;;;;2.71;86.08;101615.45;107302;1255;73362;-77
2023/02/16 01:33:43;;;;;;;28.90;18.60;;;;;;;2.71;86.18;101613.88;107207;1254;71156;-77
2023/02/16 01:36:33;;;;;;;31.80;19.00;;;;;;;2.71;86.06;101617.33;107386;1255;62802;-77
2023/02/16 01:39:00;;;;;;;29.70;18.80;;;;;;;2.71;86.08;101618.90;107941;1255;60400;-79
2023/02/16 01:41:45;;;;;;;29.70;19.60;;;;;;;2.71;86.21;101620.65;107324;1257;74597;-79
2023/02/16 01:44:22;;;;;;;32.10;19.40;;;;;;;2.72;85.85;101620.98;108045;1255;72068;-78
2023/02/16 01:47:06;;;;;;;31.90;19.60;;;;;;;2.70;86.45;101624.04;107935;1255;71783;-78
2023/02/16 01:49:33;;;;;;;32.20;19.10;;;;;;;2.70;85.84;101619.35;108343;1255;61874;-77
2023/02/16 01:52:22;;;;;;;30.10;19.30;;;;;;;2.69;86.11;101614.38;108501;1259;60037;-77
2023/02/16 01:54:55;;;;;;;29.70;18.50;;;;;;;2.68;86.42;101613.58;108535;1257;75116;-76
2023/02/16 01:57:34;;;;;;;30.30;19.60;;;;;;;2.65;86.40;101608.64;107999;1255;69674;-77
2023/02/16 02:00:06;;;;;;;31.30;19.20;;;;;;;2.63;86.80;101609.83;107981;1256;71157;-78
2023/02/16 02:02:38;;;;;;;33.70;20.90;;;;;;;2.61;86.61;101608.92;106997;1256;61234;-77
2023/02/16 02:05:34;;;;;;;30.80;19.10;;;;;;;2.59;87.05;101607.69;108451;1256;61145;-78
2023/02/16 02:08:24;;;;;;;32.40;20.90;;;;;;;2.56;86.64;101605.42;107166;1255;74850;-78
2023/02/16 02:11:05;;;;;;;33.20;20.90;;;;;;;2.52;87.15;101606.42;106779;1256;69810;-78
2023/02/16 02:13:50;;;;;;;30.40;20.00;;;;;;;2.49;86.84;101603.81;106575;1256;73766;-77
2023/02/16 02:16:23;;;;;;;32.40;19.70;;;;;;;2.45;87.25;101596.71;106756;1256;61308;-78
2023/02/16 02:18:51;;;;;;;35.20;21.50;;;;;;;2.42;87.29;101597.73;106250;1258;61271;-79
2023/02/16 02:24:48;;;;;;;35.60;21.20;;;;;;;2.35;87.65;101591.75;106627;1254;70568;-78
2023/02/16 02:27:15;;;;;;;36.20;21.60;;;;;;;2.32;88.33;101587.27;106452;1255;72194;-76
2023/02/16 02:30:40;;;;;;;35.60;22.50;;;;;;;2.30;88.47;101582.52;106466;1259;61354;-78
2023/02/16 02:33:19;;;;;;;34.30;22.10;;;;;;;2.26;88.76;101584.31;105708;1263;61275;-78
2023/02/16 02:36:04;;;;;;;34.80;21.60;;;;;;;2.25;89.00;101587.35;105994;1264;74725;-79
2023/02/16 02:38:42;;;;;;;36.10;22.10;;;;;;;2.24;89.33;101587.42;106416;1260;69653;-79
2023/02/16 02:42:04;;;;;;;38.60;22.60;;;;;;;2.26;89.60;101589.91;106671;1258;71512;-77
2023/02/16 02:44:38;;;;;;;37.40;22.70;;;;;;;2.28;89.69;101591.20;106480;1260;61391;-77
2023/02/16 02:47:05;;;;;;;38.00;22.40;;;;;;;2.29;89.63;101588.30;106520;1261;61685;-77
2023/02/16 02:49:33;;;;;;;37.70;23.00;;;;;;;2.32;89.67;101586.90;107577;1255;72701;-76
2023/02/16 02:52:00;;;;;;;38.10;23.00;;;;;;;2.34;90.00;101584.33;107352;1255;71493;-80
2023/02/16 03:03:30;;;;;;;36.20;22.50;;;;;;;2.45;89.93;101574.52;106449;1255;72843;-79
2023/02/16 03:06:12;;;;;;;39.90;23.90;;;;;;;2.47;89.88;101572.34;106471;1256;70020;-78
2023/02/16 03:08:44;;;;;;;39.30;23.90;;;;;;;2.48;90.17;101572.23;106633;1260;72750;-78
2023/02/16 03:14:23;;;;;;;37.60;23.50;;;;;;;2.51;90.31;101585.14;106503;1255;61160;-79
2023/02/16 03:30:56;;;;;;;37.10;22.40;;;;;;;2.53;90.13;101584.30;106537;1256;73517;-77
2023/02/16 03:33:24;;;;;;;38.90;23.20;;;;;;;2.53;90.03;101584.66;106718;1255;72445;-78
2023/02/16 03:35:52;;;;;;;39.00;23.30;;;;;;;2.53;90.37;101580.29;106560;1255;71377;-77
2023/02/16 03:38:20;;;;;;;40.70;24.50;;;;;;;2.54;90.05;101576.08;106669;1255;62199;-78
2023/02/16 03:40:49;;;;;;;38.50;23.60;;;;;;;2.54;89.52;101577.81;106293;1258;61205;-79
2023/02/16 03:43:16;;;;;;;40.80;24.50;;;;;;;2.53;90.03;101576.96;106399;1255;73971;-78
2023/02/16 03:45:44;;;;;;;40.40;24.80;;;;;;;2.54;90.22;101576.42;106679;1256;71063;-79
2023/02/16 03:48:11;;;;;;;39.50;24.00;;;;;;;2.54;90.34;101575.71;106231;1255;74079;-79
2023/02/16 03:50:38;;;;;;;36.60;22.20;;;;;;;2.54;90.24;101578.31;106559;1255;61275;-78
2023/02/16 03:53:05;;;;;;;38.60;23.00;;;;;;;2.54;90.40;101575.70;106348;1258;61247;-78
2023/02/16 03:55:41;;;;;;;39.10;24.20;;;;;;;2.54;89.87;101566.64;106948;1255;74478;-76
2023/02/16 03:58:13;;;;;;;45.60;25.10;;;;;;;2.52;90.06;101567.30;106547;1260;71257;-78
2023/02/16 04:00:41;;;;;;;42.50;24.40;;;;;;;2.51;90.15;101564.73;106419;1257;72457;-78
2023/02/16 04:03:08;;;;;;;39.50;23.80;;;;;;;2.51;90.33;101563.17;106377;1256;61164;-78
2023/02/16 04:05:36;;;;;;;41.60;26.10;;;;;;;2.51;89.83;101559.83;106288;1256;61270;-78
2023/02/16 04:08:04;;;;;;;39.80;24.90;;;;;;;2.50;89.88;101557.81;106552;1260;73478;-78
2023/02/16 04:10:31;;;;;;;39.50;24.10;;;;;;;2.50;89.65;101564.61;106466;1256;70742;-79
2023/02/16 04:12:58;;;;;;;39.30;23.70;;;;;;;2.47;89.56;101563.40;106848;1255;72375;-77
2023/02/16 04:15:27;;;;;;;41.40;24.90;;;;;;;2.45;90.03;101561.93;106643;1257;61862;-76
2023/02/16 04:17:55;;;;;;;42.60;25.70;;;;;;;2.42;89.89;101560.71;106131;1256;62701;-79
2023/02/16 04:20:31;;;;;;;40.00;23.50;;;;;;;2.41;90.02;101560.63;106491;1256;73546;-79
2023/02/16 04:22:58;;;;;;;41.20;24.30;;;;;;;2.39;90.13;101563.06;106582;1258;71242;-78
2023/02/16 04:25:26;;;;;;;41.30;23.90;;;;;;;2.35;89.88;101563.97;106451;1256;72828;-78
2023/02/16 04:27:55;;;;;;;40.00;24.40;;;;;;;2.32;89.58;101571.19;106289;1255;61801;-78
2023/02/16 04:30:28;;;;;;;40.20;24.40;;;;;;;2.28;89.66;101572.88;106748;1255;61668;-77
2023/02/16 04:32:55;;;;;;;41.90;24.30;;;;;;;2.23;89.39;101573.51;106655;1255;74182;-78
2023/02/16 04:35:26;;;;;;;41.90;24.90;;;;;;;2.19;89.30;101572.04;106448;1256;70611;-78
2023/02/16 04:37:53;;;;;;;42.70;26.00;;;;;;;2.13;89.43;101570.50;106513;1260;72299;-76
2023/02/16 04:40:19;;;;;;;43.90;24.40;;;;;;;2.07;89.46;101570.02;106547;1255;61365;-77
2023/02/16 04:42:47;;;;;;;43.40;25.80;;;;;;;2.03;89.74;101565.71;106555;1255;61242;-78
2023/02/16 04:45:15;;;;;;;46.80;26.50;;;;;;;1.98;90.00;101560.95;106205;1256;74511;-79
2023/02/16 04:47:42;;;;;;;41.40;23.60;;;;;;;1.95;90.30;101556.13;106293;1258;69840;-77
2023/02/16 04:50:10;;;;;;;42.60;24.80;;;;;;;1.91;90.67;101554.41;107049;1256;70500;-77
2023/02/16 04:52:37;;;;;;;46.20;27.40;;;;;;;1.89;91.43;101542.05;106633;1256;61354;-77
2023/02/16 04:55:06;;;;;;;46.90;26.60;;;;;;;1.87;91.76;101540.77;106679;1256;60136;-78
2023/02/16 04:57:33;;;;;;;45.30;27.00;;;;;;;1.86;91.64;101533.11;106515;1257;74814;-78
2023/02/16 05:00:00;;;;;;;45.40;27.00;;;;;;;1.86;91.90;101526.52;106500;1255;71297;-79
2023/02/16 05:02:28;;;;;;;44.20;26.80;;;;;;;1.85;92.32;101526.92;106454;1255;70179;-78
2023/02/16 05:04:55;;;;;;;44.80;25.90;;;;;;;1.86;92.68;101529.49;106809;1256;61201;-77
2023/02/16 05:07:22;;;;;;;45.50;27.50;;;;;;;1.85;93.01;101529.04;106860;1255;61217;-78
2023/02/16 05:09:50;;;;;;;46.80;26.20;;;;;;;1.85;93.23;101530.79;106327;1258;73157;-78
2023/02/16 05:15:05;;;;;;;43.30;25.40;;;;;;;1.84;93.14;101533.09;106402;1256;71443;-78
2023/02/16 05:17:32;;;;;;;47.10;26.00;;;;;;;1.84;93.31;101531.53;106590;1257;61243;-77
2023/02/16 05:20:00;;;;;;;47.00;26.90;;;;;;;1.83;93.39;101532.96;106467;1256;61342;-77
2023/02/16 05:22:27;;;;;;;46.10;26.30;;;;;;;1.84;93.04;101532.06;106510;1255;74372;-78
2023/02/16 05:24:55;;;;;;;45.80;26.20;;;;;;;1.84;93.30;101536.05;106914;1256;72100;-78
2023/02/16 05:27:27;;;;;;;43.10;25.80;;;;;;;1.85;93.69;101539.33;106448;1255;72943;-77
2023/02/16 05:29:54;;;;;;;46.90;27.70;;;;;;;1.85;93.80;101535.13;106654;1256;61489;-77
2023/02/16 05:32:21;;;;;;;45.50;26.40;;;;;;;1.88;93.83;101542.98;106366;1255;61352;-76
2023/02/16 05:34:51;;;;;;;47.50;26.60;;;;;;;1.90;93.89;101548.73;106778;1255;74358;-77
2023/02/16 05:37:18;;;;;;;46.80;27.10;;;;;;;1.93;93.80;101549.08;106422;1254;70868;-78
2023/02/16 05:39:46;;;;;;;46.50;27.00;;;;;;;1.96;94.04;101549.61;106555;1255;73951;-77
2023/02/16 05:42:13;;;;;;;48.00;27.30;;;;;;;1.99;94.08;101552.03;106776;1256;61365;-77
2023/02/16 05:44:40;;;;;;;46.20;26.10;;;;;;;2.02;93.93;101548.32;106546;1255;61260;-76
2023/02/16 05:47:07;;;;;;;46.90;27.50;;;;;;;2.04;93.81;101544.73;106022;1262;300717;-77
2023/02/16 05:49:34;;;;;;;47.90;26.30;;;;;;;2.07;93.66;101543.02;106819;1256;69916;-76
2023/02/16 05:52:01;;;;;;;41.40;23.90;;;;;;;2.08;93.76;101540.14;106355;1255;71801;-79
2023/02/16 05:54:28;;;;;;;44.10;26.00;;;;;;;2.10;93.66;101543.46;106627;1256;61255;-76
2023/02/16 05:56:55;;;;;;;44.20;26.30;;;;;;;2.12;93.27;101544.38;106722;1255;62710;-76
2023/02/16 05:59:22;;;;;;;44.10;26.00;;;;;;;2.14;93.08;101540.98;106556;1255;73455;-76
2023/02/16 06:01:49;;;;;;;44.10;25.60;;;;;;;2.14;93.25;101547.26;106653;1258;70049;-77
2023/02/16 06:04:19;;;;;;;42.40;25.50;;;;;;;2.15;93.10;101547.82;106454;1254;72777;-76
2023/02/16 06:06:47;;;;;;;49.00;26.50;;;;;;;2.17;92.76;101546.33;106354;1255;61319;-75
2023/02/16 06:09:14;;;;;;;45.60;26.90;;;;;;;2.18;92.99;101548.69;106272;1256;61251;-76
2023/02/16 06:11:41;;;;;;;44.50;27.00;;;;;;;2.18;92.86;101551.31;106236;1256;74774;-76
2023/02/16 06:14:12;;;;;;;45.50;27.40;;;;;;;2.18;92.66;101556.40;106607;1256;70670;-79
2023/02/16 06:16:40;;;;;;;47.00;27.30;;;;;;;2.18;92.35;101556.05;106761;1254;71660;-78
2023/02/16 06:19:08;;;;;;;44.40;25.60;;;;;;;2.17;92.71;101553.83;106787;1256;61602;-78
2023/02/16 06:21:37;;;;;;;44.60;25.80;;;;;;;2.18;92.65;101557.64;106349;1260;61647;-78
2023/02/16 06:24:05;;;;;;;42.90;25.40;;;;;;;2.18;92.34;101556.56;106697;1256;73848;-79
2023/02/16 06:26:33;;;;;;;41.70;23.90;;;;;;;2.17;92.77;101555.75;106821;1256;69664;-79
2023/02/16 06:29:00;;;;;;;45.00;25.50;;;;;;;2.17;92.37;101560.46;106461;1255;71720;-76
2023/02/16 06:31:27;;;;;;;44.00;25.50;;;;;;;2.18;92.70;101558.82;106394;1256;61283;-77
2023/02/16 06:33:55;;;;;;;40.80;25.20;;;;;;;2.22;92.20;101558.01;109126;1255;60410;-77
2023/02/16 06:36:23;;;;;;;44.70;25.20;;;;;;;2.27;92.30;101552.52;109019;1255;75961;-76
2023/02/16 06:38:50;;;;;;;41.70;25.30;;;;;;;2.31;92.02;101550.80;108926;1255;69942;-77
2023/02/16 06:41:29;;;;;;;41.40;25.80;;;;;;;2.34;91.87;101548.70;108954;1255;71102;-78
2023/02/16 06:44:02;;;;;;;40.60;24.20;;;;;;;2.38;91.76;101545.52;109105;1255;60356;-77
2023/02/16 06:46:29;;;;;;;42.00;24.90;;;;;;;2.40;91.39;101542.05;108940;1255;60243;-77
2023/02/16 06:48:56;;;;;;;44.00;24.90;;;;;;;2.44;91.41;101545.78;109078;1255;73170;-77
2023/02/16 06:51:23;;;;;;;37.60;22.80;;;;;;;2.48;90.98;101547.99;108959;1254;71238;-77
2023/02/16 06:53:50;;;;;;;39.10;24.00;;;;;;;2.50;90.58;101550.48;108923;1255;70189;-77
2023/02/16 06:56:17;;;;;;;41.20;24.90;;;;;;;2.54;90.41;101557.56;109097;1255;60962;-77
2023/02/16 06:58:44;;;;;;;39.20;24.00;;;;;;;2.56;90.32;101564.38;108996;1254;61667;-76
2023/02/16 07:01:11;;;;;;;37.50;22.80;;;;;;;2.59;90.02;101565.77;109115;1256;74257;-76
2023/02/16 07:03:38;;;;;;;38.90;22.70;;;;;;;2.63;89.98;101565.48;109156;1255;71728;-77
2023/02/16 07:06:05;;;;;;;43.00;25.40;;;;;;;2.68;89.71;101563.80;109054;1254;72366;-77
2023/02/16 07:08:33;;;;;;;39.30;23.80;;;;;;;2.71;89.50;101564.62;108963;1255;59787;-76
2023/02/16 07:11:01;;;;;;;38.50;23.50;;;;;;;2.75;89.37;101569.08;109059;1255;59098;-77
2023/02/16 07:13:28;;;;;;;41.10;23.80;;;;;;;2.77;89.30;101567.86;109121;1255;74459;-76
2023/02/16 07:15:55;;;;;;;38.00;23.30;;;;;;;2.81;88.99;101566.20;109058;1255;71126;-77
2023/02/16 07:18:22;;;;;;;41.40;23.50;;;;;;;2.85;88.85;101566.11;108892;1255;72399;-77
2023/02/16 07:20:49;;;;;;;37.40;22.70;;;;;;;2.89;88.54;101573.02;108968;1256;59618;-77
2023/02/16 07:23:16;;;;;;;39.40;23.30;;;;;;;2.94;88.45;101576.03;109063;1255;60247;-77
2023/02/16 07:25:43;;;;;;;41.30;25.30;;;;;;;2.97;88.19;101577.57;108857;1256;74629;-74
2023/02/16 07:28:10;;;;;;;39.20;23.70;;;;;;;3.01;87.94;101574.11;109109;1255;69921;-74
2023/02/16 07:33:44;;;;;;;36.20;22.40;;;;;;;3.05;87.36;101568.06;103404;1291;599935;-73
2023/02/16 07:36:12;;;;;;;36.60;22.30;;;;;;;3.04;87.33;101569.52;105894;1266;59282;-74
2023/02/16 07:38:42;;;;;;;37.40;23.00;;;;;;;3.06;87.17;101570.48;105654;1267;59343;-74
2023/02/16 07:41:09;;;;;;;37.20;22.40;;;;;;;3.08;87.13;101574.91;105814;1267;72553;-76
2023/02/16 07:43:38;;;;;;;36.70;22.80;;;;;;;3.13;86.88;101573.81;106170;1266;71327;-76
2023/02/16 07:46:04;;;;;;;37.30;21.80;;;;;;;3.18;86.98;101575.94;105927;1267;72401;-76
2023/02/16 07:48:32;;;;;;;35.70;21.60;;;;;;;3.24;86.84;101573.96;105694;1263;207950;-76
2023/02/16 07:51:00;;;;;;;34.90;20.80;;;;;;;3.25;86.41;101569.00;105935;1263;60016;-76
2023/02/16 07:53:27;;;;;;;35.20;22.00;;;;;;;3.29;86.45;101571.71;106001;1265;70614;-75
2023/02/16 07:55:55;;;;;;;37.80;22.10;;;;;;;3.32;86.26;101571.98;106148;1263;70931;-76
2023/02/16 07:58:28;;;;;;;37.50;22.40;;;;;;;3.37;86.13;101575.70;105945;1269;71364;-78
2023/02/16 08:00:56;;;;;;;36.20;22.40;;;;;;;3.43;85.90;101582.75;106101;1263;60455;-78
2023/02/16 08:03:23;;;;;;;31.10;19.00;;;;;;;3.51;85.67;101586.42;106255;1267;59635;-77
2023/02/16 08:05:50;;;;;;;36.20;21.70;;;;;;;3.56;85.13;101586.58;106089;1263;72947;-74
2023/02/16 08:08:17;;;;;;;37.30;22.40;;;;;;;3.62;84.60;101582.70;105943;1263;72407;-75
2023/02/16 08:10:44;;;;;;;34.80;21.40;;;;;;;3.70;84.56;101583.38;105994;1266;70127;-75
2023/02/16 08:13:11;;;;;;;35.60;21.60;;;;;;;3.74;84.37;101579.94;105972;1266;59660;-75
2023/02/16 08:15:42;;;;;;;33.10;21.40;;;;;;;3.77;84.02;101584.94;106238;1263;59676;-75
2023/02/16 08:18:09;;;;;;;33.80;21.00;;;;;;;3.78;83.71;101582.11;106185;1263;71525;-76
2023/02/16 08:20:36;;;;;;;33.20;21.10;;;;;;;3.78;83.43;101580.19;105902;1263;70863;-76
2023/02/16 08:23:23;;;;;;;32.80;21.20;;;;;;;3.80;83.69;101578.45;106416;1266;73632;-74
2023/02/16 08:25:50;;;;;;;32.00;20.10;;;;;;;3.85;83.50;101580.02;106032;1264;60801;-74
2023/02/16 08:28:18;;;;;;;30.90;20.30;;;;;;;3.90;83.21;101578.58;106099;1266;60149;-75
2023/02/16 08:30:45;;;;;;;32.80;20.70;;;;;;;3.99;83.32;101583.02;106012;1266;71807;-77
2023/02/16 08:33:12;;;;;;;30.40;18.50;;;;;;;4.07;82.77;101585.23;105922;1266;70905;-78
2023/02/16 08:35:39;;;;;;;31.00;20.40;;;;;;;4.17;82.70;101585.42;106037;1266;71133;-77
2023/02/16 08:38:07;;;;;;;31.10;19.80;;;;;;;4.24;82.17;101585.42;106553;1256;59583;-76
2023/02/16 08:40:34;;;;;;;31.90;19.50;;;;;;;4.32;81.65;101579.81;106434;1256;60052;-76
2023/02/16 08:43:01;;;;;;;34.60;21.60;;;;;;;4.40;81.64;101577.76;106189;1258;72016;-75
2023/02/16 08:45:29;;;;;;;29.50;18.90;;;;;;;4.51;81.07;101578.06;106531;1257;70203;-75
2023/02/16 08:47:56;;;;;;;29.90;19.30;;;;;;;4.62;80.36;101577.92;106395;1258;71459;-76
2023/02/16 08:50:23;;;;;;;30.80;19.40;;;;;;;4.76;80.14;101577.95;106377;1257;60360;-75
2023/02/16 08:52:50;;;;;;;31.10;19.80;;;;;;;4.90;79.62;101577.92;106482;1260;60109;-76
2023/02/16 08:55:17;;;;;;;30.70;19.20;;;;;;;5.02;79.12;101576.48;106569;1260;70624;-77
2023/02/16 08:57:44;;;;;;;29.20;18.90;;;;;;;5.18;78.61;101572.63;106321;1258;70061;-76
2023/02/16 09:02:59;;;;;;;30.60;19.00;;;;;;;5.59;77.48;101577.67;106618;1258;60577;-78
2023/02/16 09:05:29;;;;;;;27.00;18.00;;;;;;;5.85;76.96;101572.16;106390;1257;60059;-82
2023/02/16 09:07:57;;;;;;;29.80;18.40;;;;;;;6.08;76.15;101563.67;106296;1257;71814;-77
2023/02/16 09:10:24;;;;;;;27.20;18.60;;;;;;;6.32;75.11;101563.26;106384;1257;72148;-78
2023/02/16 09:12:51;;;;;;;28.50;18.20;;;;;;;6.50;74.52;101559.15;106912;1257;71088;-75
2023/02/16 09:15:18;;;;;;;26.60;17.60;;;;;;;6.62;72.86;101556.42;106581;1257;60952;-75
2023/02/16 09:17:45;;;;;;;27.60;18.40;;;;;;;6.70;72.56;101559.58;106269;1256;60030;-76
2023/02/16 09:20:12;;;;;;;28.30;18.50;;;;;;;6.70;71.68;101552.80;106071;1257;73072;-78
2023/02/16 09:22:42;;;;;;;27.20;18.00;;;;;;;6.71;71.62;101547.34;106346;1258;71194;-79
2023/02/16 09:25:12;;;;;;;27.00;17.40;;;;;;;6.80;72.30;101553.52;106517;1257;72204;-78
2023/02/16 09:27:39;;;;;;;26.20;17.40;;;;;;;6.84;71.53;101560.39;106082;1256;60663;-77
2023/02/16 09:30:08;;;;;;;25.80;17.10;;;;;;;6.89;71.57;101560.30;106179;1256;60097;-76
2023/02/16 09:32:35;;;;;;;26.60;18.50;;;;;;;6.89;71.37;101562.53;106512;1257;71030;-75
2023/02/16 09:35:03;;;;;;;27.40;18.10;;;;;;;6.92;71.38;101564.63;106429;1257;69639;-74
2023/02/16 09:37:31;;;;;;;26.00;18.10;;;;;;;6.85;70.97;101567.98;106064;1257;71500;-76
2023/02/16 09:39:58;;;;;;;26.70;17.90;;;;;;;6.83;71.23;101565.73;106127;1258;59657;-75
2023/02/16 09:42:42;;;;;;;25.10;17.60;;;;;;;6.82;71.31;101560.54;106273;1257;60401;-79
2023/02/16 09:45:14;;;;;;;27.70;18.40;;;;;;;6.88;71.86;101570.77;106308;1257;72855;-76
2023/02/16 09:47:43;;;;;;;27.90;18.10;;;;;;;6.94;71.49;101571.98;105975;1261;69970;-77
2023/02/16 09:50:24;;;;;;;27.10;17.90;;;;;;;6.99;71.43;101577.09;106226;1257;71853;-76
2023/02/16 09:53:44;;;;;;;26.10;17.70;;;;;;;6.97;70.94;101574.02;106143;1260;59836;-76
2023/02/16 09:56:28;;;;;;;24.90;17.20;;;;;;;7.04;70.84;101573.63;106100;1256;60021;-78
2023/02/16 09:59:13;;;;;;;27.40;17.70;;;;;;;7.10;70.41;101566.98;106277;1258;71871;-75
2023/02/16 10:02:04;;;;;;;25.80;17.60;;;;;;;7.16;70.36;101570.13;106086;1257;69906;-78
2023/02/16 10:04:57;;;;;;;26.20;17.50;;;;;;;7.14;69.77;101569.42;106254;1257;72375;-74
2023/02/16 10:08:15;;;;;;;26.40;18.20;;;;;;;7.14;69.86;101582.75;106014;1258;60925;-75
2023/02/16 10:10:51;;;;;;;28.50;17.80;;;;;;;7.17;70.44;101585.57;105782;1261;59766;-76
2023/02/16 10:13:28;;;;;;;27.60;17.60;;;;;;;7.19;70.73;101581.17;106381;1253;71983;-75
2023/02/16 10:15:57;;;;;;;26.20;17.30;;;;;;;7.24;70.44;101574.60;106621;1258;69749;-77
2023/02/16 10:18:28;;;;;;;27.20;17.80;;;;;;;7.29;70.39;101574.31;106221;1253;72684;-80
2023/02/16 10:20:59;;;;;;;27.20;18.20;;;;;;;7.33;70.15;101576.38;106402;1256;59993;-79
2023/02/16 10:23:47;;;;;;;25.50;16.50;;;;;;;7.41;70.47;101578.42;106903;1256;59505;-78
2023/02/16 10:26:24;;;;;;;26.20;17.30;;;;;;;7.36;70.01;101582.16;106552;1257;74054;-79
2023/02/16 10:28:57;;;;;;;27.20;17.50;;;;;;;7.24;69.74;101583.92;106448;1256;71235;-78
2023/02/16 10:31:36;;;;;;;22.90;16.80;;;;;;;7.13;70.17;101589.77;106382;1257;71985;-74
2023/02/16 10:34:28;;;;;;;25.50;17.80;;;;;;;7.01;70.46;101586.59;106461;1253;59639;-76
2023/02/16 10:37:16;;;;;;;25.50;18.20;;;;;;;6.90;70.62;101582.34;106461;1253;60416;-77
2023/02/16 10:40:18;;;;;;;26.20;17.90;;;;;;;6.83;71.20;101561.17;106511;1254;72788;-75
2023/02/16 10:43:04;;;;;;;25.90;17.60;;;;;;;6.86;71.18;101563.23;106061;1253;69656;-75
2023/02/16 10:45:40;;;;;;;27.70;17.50;;;;;;;6.95;71.50;101555.95;106384;1254;73180;-74
2023/02/16 10:48:08;;;;;;;25.90;17.80;;;;;;;7.06;71.03;101555.52;106461;1253;60403;-75
2023/02/16 10:50:47;;;;;;;26.20;17.30;;;;;;;7.17;70.96;101554.79;106315;1259;59634;-79
2023/02/16 10:53:33;;;;;;;25.30;17.30;;;;;;;7.28;70.93;101555.35;106762;1254;72803;-76
2023/02/16 10:55:59;;;;;;;25.80;17.90;;;;;;;7.41;70.41;101562.62;106523;1256;69973;-77
2023/02/16 10:58:37;;;;;;;25.90;17.70;;;;;;;7.50;70.37;101568.05;106318;1255;72715;-77
2023/02/16 11:01:21;;;;;;;26.40;17.00;;;;;;;7.62;70.09;101576.58;106855;1253;60948;-78
2023/02/16 11:03:50;;;;;;;27.50;17.70;;;;;;;7.72;70.13;101575.83;106391;1259;60796;-78
2023/02/16 11:06:21;;;;;;;25.50;17.80;;;;;;;7.85;69.66;101567.49;106255;1256;72262;-75
2023/02/16 11:08:58;;;;;;;26.10;18.10;;;;;;;7.94;68.93;101572.93;106578;1256;69754;-75
2023/02/16 11:11:27;;;;;;;26.60;18.70;;;;;;;7.96;68.43;101572.49;106419;1253;71936;-76
2023/02/16 11:14:03;;;;;;;25.50;18.10;;;;;;;7.94;68.27;101573.46;106416;1260;60925;-79
2023/02/16 11:16:33;;;;;;;27.20;18.20;;;;;;;8.02;68.46;101575.70;107302;1254;59631;-78
2023/02/16 11:19:06;;;;;;;24.90;17.50;;;;;;;8.11;68.06;101577.13;106305;1259;72591;-79
2023/02/16 11:21:49;;;;;;;28.10;20.10;;;;;;;8.22;67.88;101566.86;106344;1254;71260;-81
2023/02/16 11:24:32;;;;;;;25.70;18.90;;;;;;;8.38;67.85;101565.45;106615;1256;73905;-77
2023/02/16 11:27:20;;;;;;;24.80;17.00;;;;;;;8.61;67.94;101568.30;106408;1262;60448;-79
2023/02/16 11:29:47;;;;;;;26.40;17.70;;;;;;;8.80;66.41;101574.69;106594;1253;60407;-77
2023/02/16 11:32:16;;;;;;;25.30;16.80;;;;;;;8.89;66.03;101569.96;106466;1259;73297;-78
2023/02/16 11:34:46;;;;;;;23.70;17.20;;;;;;;8.93;65.54;101561.67;106472;1258;72156;-77
2023/02/16 11:37:24;;;;;;;25.80;17.90;;;;;;;8.94;65.58;101557.48;106540;1256;71143;-76
2023/02/16 11:40:08;;;;;;;26.20;17.40;;;;;;;9.00;65.16;101552.94;106425;1256;59757;-77
2023/02/16 11:42:39;;;;;;;25.90;18.10;;;;;;;9.07;65.50;101548.95;106651;1253;59657;-78
2023/02/16 11:45:07;;;;;;;23.90;18.00;;;;;;;9.12;64.84;101540.85;106763;1253;73014;-79
2023/02/16 11:47:38;;;;;;;25.80;17.10;;;;;;;9.15;64.81;101547.21;106512;1253;70751;-78
2023/02/16 11:50:18;;;;;;;26.50;17.90;;;;;;;9.16;64.41;101552.98;106399;1256;71288;-77
2023/02/16 11:52:51;;;;;;;24.50;17.80;;;;;;;9.32;65.13;101544.59;106674;1257;60970;-76
2023/02/16 11:55:33;;;;;;;23.80;16.70;;;;;;;9.56;64.48;101544.10;106387;1253;60358;-79
2023/02/16 11:58:32;;;;;;;25.10;17.30;;;;;;;9.79;63.79;101537.59;106406;1260;73915;-78
2023/02/16 12:01:27;;;;;;;24.70;17.60;;;;;;;9.88;63.50;101535.20;106064;1253;69942;-76
2023/02/16 12:04:17;;;;;;;25.30;17.90;;;;;;;9.87;62.60;101532.81;106575;1255;71266;-76
2023/02/16 12:06:43;;;;;;;25.90;17.60;;;;;;;9.78;62.32;101537.88;106192;1255;61015;-77
2023/02/16 12:09:25;;;;;;;25.30;17.50;;;;;;;9.74;62.62;101542.15;106445;1258;60768;-77
2023/02/16 12:12:20;;;;;;;24.70;17.40;;;;;;;9.63;62.33;101546.25;106302;1261;73746;-78
2023/02/16 12:15:05;;;;;;;24.70;16.80;;;;;;;9.47;62.61;101544.44;106519;1254;71356;-77